Time;durP1;ratioP1;P1;durP2;ratioP2;P2;SDS_P1;SDS_P2;PMS_P1;PMS_P2;Temp;Humidity;BMP_temperature;BMP_pressure;BME280_temperature;BME280_humidity;BME280_pressure;Samples;Min_cycle;Max_cycle;Signal;HPM_P1;HPM_P2
2023/05/07 00:00:40;;;;;;;;;;;;;;;13.04;100.00;101608.53;5054497;28;19924;-72
2023/05/07 00:03:05;;;;;;;;;;;;;;;12.95;100.00;101611.06;5054847;28;19920;-72
2023/05/07 00:05:30;;;;;;;;;;;;;;;12.94;100.00;101614.75;5048753;28;20405;-72
2023/05/07 00:07:55;;;;;;;;;;;;;;;12.92;100.00;101612.19;5053986;28;19963;-72
2023/05/07 00:10:22;;;;;;;;;;;;;;;12.89;100.00;101615.09;5048952;28;19959;-73
2023/05/07 00:12:47;;;;;;;;;;;;;;;12.80;100.00;101615.78;5055500;28;19921;-73
2023/05/07 00:15:12;;;;;;;;;;;;;;;12.70;100.00;101629.97;5059475;28;19943;-73
2023/05/07 00:17:37;;;;;;;;;;;;;;;12.69;100.00;101628.25;5057845;28;20509;-72
2023/05/07 00:20:03;;;;;;;;;;;;;;;12.71;100.00;101620.88;5055830;28;20195;-73
2023/05/07 00:22:30;;;;;;;;;;;;;;;12.67;100.00;101614.03;5057188;28;19924;-72
2023/05/07 00:24:55;;;;;;;;;;;;;;;12.60;100.00;101618.13;5057525;28;19927;-73
2023/05/07 00:27:20;;;;;;;;;;;;;;;12.55;100.00;101612.22;5057080;28;19916;-72
2023/05/07 00:29:45;;;;;;;;;;;;;;;12.51;100.00;101606.22;5057053;28;20474;-73
2023/05/07 00:32:10;;;;;;;;;;;;;;;12.55;100.00;101610.41;5058194;28;20443;-73
2023/05/07 00:34:36;;;;;;;;;;;;;;;12.54;100.00;101595.22;5056131;28;19931;-73
2023/05/07 00:37:01;;;;;;;;;;;;;;;12.54;100.00;101603.28;5055437;28;19924;-73
2023/05/07 00:39:26;;;;;;;;;;;;;;;12.51;100.00;101594.56;5059621;28;19924;-72
2023/05/07 00:41:52;;;;;;;;;;;;;;;12.44;100.00;101595.03;5059849;28;19920;-73
2023/05/07 00:44:18;;;;;;;;;;;;;;;12.38;100.00;101595.50;5053017;28;19970;-73
2023/05/07 00:46:44;;;;;;;;;;;;;;;12.40;100.00;101596.25;5055825;28;19921;-72
2023/05/07 00:49:09;;;;;;;;;;;;;;;12.41;100.00;101605.16;5052679;28;19919;-73
2023/05/07 00:51:35;;;;;;;;;;;;;;;12.46;100.00;101586.84;5042579;28;20409;-73
2023/05/07 00:54:00;;;;;;;;;;;;;;;12.51;100.00;101589.19;5061238;28;20386;-73
2023/05/07 00:56:26;;;;;;;;;;;;;;;12.48;100.00;101587.59;5042049;28;20439;-73
2023/05/07 00:58:51;;;;;;;;;;;;;;;12.49;100.00;101583.91;5053011;28;19928;-73
2023/05/07 01:01:16;;;;;;;;;;;;;;;12.48;100.00;101584.88;5060020;28;19920;-72
2023/05/07 01:03:41;;;;;;;;;;;;;;;12.45;100.00;101585.97;5040836;28;19979;-72
2023/05/07 01:06:07;;;;;;;;;;;;;;;12.40;100.00;101593.53;5059812;28;19967;-72
2023/05/07 01:08:32;;;;;;;;;;;;;;;12.39;100.00;101590.94;5054109;28;19927;-73
2023/05/07 01:10:57;;;;;;;;;;;;;;;12.34;100.00;101587.72;5053170;28;20035;-72
2023/05/07 01:13:22;;;;;;;;;;;;;;;12.32;100.00;101589.66;5057530;28;20286;-73
2023/05/07 01:15:47;;;;;;;;;;;;;;;12.28;100.00;101581.84;5054310;28;20418;-72
2023/05/07 01:18:13;;;;;;;;;;;;;;;12.28;100.00;101579.16;5041535;28;20409;-72
2023/05/07 01:20:38;;;;;;;;;;;;;;;12.29;100.00;101580.00;5059348;28;20594;-72
2023/05/07 01:23:03;;;;;;;;;;;;;;;12.27;100.00;101574.75;5040329;28;19924;-73
2023/05/07 01:25:28;;;;;;;;;;;;;;;12.29;100.00;101580.88;5057043;28;19921;-73
2023/05/07 01:27:54;;;;;;;;;;;;;;;12.30;100.00;101579.91;5052580;28;19981;-72
2023/05/07 01:30:19;;;;;;;;;;;;;;;12.33;100.00;101580.63;5052743;28;19970;-73
2023/05/07 01:32:48;;;;;;;;;;;;;;;12.36;100.00;101585.78;5059467;28;20007;-73
2023/05/07 01:35:15;;;;;;;;;;;;;;;12.40;100.00;101584.59;5055420;28;20374;-73
2023/05/07 01:37:40;;;;;;;;;;;;;;;12.47;100.00;101585.88;5053560;28;19925;-73
2023/05/07 01:40:07;;;;;;;;;;;;;;;12.48;100.00;101574.13;5058971;28;19983;-73
2023/05/07 01:42:32;;;;;;;;;;;;;;;12.53;100.00;101582.72;5056602;28;20404;-73
2023/05/07 01:44:57;;;;;;;;;;;;;;;12.58;100.00;101580.53;5060363;28;19925;-73
2023/05/07 01:47:22;;;;;;;;;;;;;;;12.48;100.00;101576.81;5062361;28;19920;-73
2023/05/07 01:49:48;;;;;;;;;;;;;;;12.42;100.00;101578.13;5042727;28;19943;-73
2023/05/07 01:52:13;;;;;;;;;;;;;;;12.44;100.00;101573.50;5054766;28;20304;-73
2023/05/07 01:54:38;;;;;;;;;;;;;;;12.51;100.00;101581.09;5058351;28;20405;-73
2023/05/07 01:57:03;;;;;;;;;;;;;;;12.52;100.00;101575.63;5043402;28;20339;-72
2023/05/07 01:59:28;;;;;;;;;;;;;;;12.49;100.00;101553.41;5053147;28;19987;-73
2023/05/07 02:01:54;;;;;;;;;;;;;;;12.62;100.00;101561.44;5057063;28;20027;-72
2023/05/07 02:04:19;;;;;;;;;;;;;;;12.60;100.00;101562.41;5048678;28;19920;-72
2023/05/07 02:06:44;;;;;;;;;;;;;;;12.68;100.00;101559.16;5055407;28;19952;-72
2023/05/07 02:09:10;;;;;;;;;;;;;;;12.71;100.00;101563.44;5050850;28;20012;-73
2023/05/07 02:11:35;;;;;;;;;;;;;;;12.72;100.00;101562.47;5053305;28;19921;-73
2023/05/07 02:14:00;;;;;;;;;;;;;;;12.72;100.00;101557.09;5051356;28;19920;-73
2023/05/07 02:16:25;;;;;;;;;;;;;;;12.62;100.00;101556.94;5048722;28;20366;-73
2023/05/07 02:18:51;;;;;;;;;;;;;;;12.64;100.00;101554.09;5048454;28;20391;-73
2023/05/07 02:21:16;;;;;;;;;;;;;;;12.63;100.00;101555.06;5061009;28;20278;-72
2023/05/07 02:23:41;;;;;;;;;;;;;;;12.63;100.00;101553.25;5065074;28;19927;-73
2023/05/07 02:26:06;;;;;;;;;;;;;;;12.59;100.00;101558.00;5055876;28;19943;-72
2023/05/07 02:28:32;;;;;;;;;;;;;;;12.64;100.00;101554.09;5072151;28;19920;-73
2023/05/07 02:30:58;;;;;;;;;;;;;;;12.68;100.00;101548.38;5062188;28;19920;-73
2023/05/07 02:33:23;;;;;;;;;;;;;;;12.70;100.00;101556.34;5042226;28;19951;-73
2023/05/07 02:35:48;;;;;;;;;;;;;;;12.68;100.00;101556.47;5058351;28;20003;-73
2023/05/07 02:38:14;;;;;;;;;;;;;;;12.73;100.00;101554.25;5048800;28;20279;-73
2023/05/07 02:40:39;;;;;;;;;;;;;;;12.74;100.00;101552.44;5053323;28;19931;-73
2023/05/07 02:43:05;;;;;;;;;;;;;;;12.72;100.00;101563.31;5050637;28;19920;-73
2023/05/07 02:45:30;;;;;;;;;;;;;;;12.68;100.00;101558.28;5044450;28;19925;-73
2023/05/07 02:47:55;;;;;;;;;;;;;;;12.73;100.00;101562.34;5044390;28;19920;-73
2023/05/07 02:50:21;;;;;;;;;;;;;;;12.75;100.00;101565.78;5061875;28;20243;-72
2023/05/07 02:52:47;;;;;;;;;;;;;;;12.77;100.00;101559.41;5061024;28;20015;-72
2023/05/07 02:55:12;;;;;;;;;;;;;;;12.75;100.00;101559.56;5060732;28;19920;-72
2023/05/07 02:57:37;;;;;;;;;;;;;;;12.73;100.00;101565.03;5053305;28;19920;-72
2023/05/07 03:00:12;;;;;;;;;;;;;;;12.77;100.00;101560.28;5067137;28;20326;-72
2023/05/07 03:02:38;;;;;;;;;;;;;;;12.77;100.00;101559.41;5058687;28;20027;-72
2023/05/07 03:05:03;;;;;;;;;;;;;;;12.74;100.00;101557.84;5060401;28;20420;-72
2023/05/07 03:07:28;;;;;;;;;;;;;;;12.79;100.00;101558.34;5057308;28;19968;-72
2023/05/07 03:09:54;;;;;;;;;;;;;;;12.78;100.00;101563.84;5045399;28;19920;-72
2023/05/07 03:12:19;;;;;;;;;;;;;;;12.79;100.00;101566.44;5038934;28;19962;-72
2023/05/07 03:14:44;;;;;;;;;;;;;;;12.79;100.00;101566.44;5056913;28;19920;-73
2023/05/07 03:17:09;;;;;;;;;;;;;;;12.78;100.00;101570.09;5054760;28;20034;-72
2023/05/07 03:19:35;;;;;;;;;;;;;;;12.77;100.00;101565.69;5052171;28;20015;-72
2023/05/07 03:22:00;;;;;;;;;;;;;;;12.77;100.00;101567.50;5048599;28;19932;-72
2023/05/07 03:24:25;;;;;;;;;;;;;;;12.73;100.00;101565.03;5048447;28;19920;-72
2023/05/07 03:26:50;;;;;;;;;;;;;;;12.71;100.00;101564.28;5051110;28;19920;-72
2023/05/07 03:29:15;;;;;;;;;;;;;;;12.69;100.00;101563.56;5048499;28;19920;-72
2023/05/07 03:31:41;;;;;;;;;;;;;;;12.67;100.00;101565.53;5052594;28;19931;-72
2023/05/07 03:34:06;;;;;;;;;;;;;;;12.67;100.00;101559.25;5054611;28;20106;-72
2023/05/07 03:36:31;;;;;;;;;;;;;;;12.64;100.00;101565.75;5054694;28;20014;-72
2023/05/07 03:38:56;;;;;;;;;;;;;;;12.69;100.00;101562.69;5052833;28;19925;-72
2023/05/07 03:41:21;;;;;;;;;;;;;;;12.67;100.00;101565.53;5056519;28;19920;-72
2023/05/07 03:43:47;;;;;;;;;;;;;;;12.69;100.00;101568.09;5053543;28;19920;-72
2023/05/07 03:46:12;;;;;;;;;;;;;;;12.75;100.00;101568.47;5059348;28;19974;-72
2023/05/07 03:48:37;;;;;;;;;;;;;;;12.77;100.00;101565.69;5064750;28;19920;-72
2023/05/07 03:51:03;;;;;;;;;;;;;;;12.72;100.00;101559.78;5053180;28;19921;-72
2023/05/07 03:53:28;;;;;;;;;;;;;;;12.78;100.00;101564.72;5057228;28;20633;-72
2023/05/07 03:55:53;;;;;;;;;;;;;;;12.78;100.00;101559.31;5060909;28;19920;-72
2023/05/07 03:58:18;;;;;;;;;;;;;;;12.78;100.00;101566.53;5053791;28;19934;-72
2023/05/07 04:00:44;;;;;;;;;;;;;;;12.80;100.00;101568.16;5052978;28;19920;-72
2023/05/07 04:03:09;;;;;;;;;;;;;;;12.80;100.00;101565.47;5051490;28;19925;-72
2023/05/07 04:05:34;;;;;;;;;;;;;;;12.84;100.00;101558.00;5060451;28;19959;-72
2023/05/07 04:08:00;;;;;;;;;;;;;;;12.80;100.00;101565.47;5060526;28;20039;-72
2023/05/07 04:10:25;;;;;;;;;;;;;;;12.85;100.00;101575.88;5052904;28;19925;-72
2023/05/07 04:12:50;;;;;;;;;;;;;;;12.87;100.00;101566.69;5060983;28;19952;-72
2023/05/07 04:15:15;;;;;;;;;;;;;;;12.84;100.00;101576.84;5056009;28;19921;-72
2023/05/07 04:17:41;;;;;;;;;;;;;;;12.87;100.00;101571.22;5059593;28;20036;-72
2023/05/07 04:20:08;;;;;;;;;;;;;;;12.87;100.00;101572.06;5055143;28;19976;-72
2023/05/07 04:22:33;;;;;;;;;;;;;;;12.88;100.00;101573.81;5057081;28;19920;-72
2023/05/07 04:25:00;;;;;;;;;;;;;;;12.86;100.00;101562.28;5055831;28;19925;-73
2023/05/07 04:27:26;;;;;;;;;;;;;;;12.89;100.00;101575.50;5055490;28;19967;-72
2023/05/07 04:29:51;;;;;;;;;;;;;;;12.92;100.00;101571.75;5059831;28;20656;-72
2023/05/07 04:32:17;;;;;;;;;;;;;;;12.89;100.00;101578.22;5060627;28;19916;-72
2023/05/07 04:34:42;;;;;;;;;;;;;;;12.82;100.00;101576.97;5064577;28;20400;-71
2023/05/07 04:37:08;;;;;;;;;;;;;;;12.78;100.00;101575.50;5058153;28;19932;-72
2023/05/07 04:39:35;;;;;;;;;;;;;;;12.87;100.00;101576.63;5056389;28;19931;-72
2023/05/07 04:42:00;;;;;;;;;;;;;;;12.88;100.00;101572.94;5043969;28;19932;-72
2023/05/07 04:44:25;;;;;;;;;;;;;;;12.90;100.00;101577.25;5054838;28;19921;-72
2023/05/07 04:46:50;;;;;;;;;;;;;;;12.96;100.00;101569.66;5055486;28;19920;-72
2023/05/07 04:49:16;;;;;;;;;;;;;;;12.96;100.00;101575.06;5053772;28;19928;-71
2023/05/07 04:51:42;;;;;;;;;;;;;;;12.96;100.00;101573.25;5040095;28;19924;-71
2023/05/07 04:54:07;;;;;;;;;;;;;;;12.98;100.00;101579.34;5052551;28;20015;-72
2023/05/07 04:56:33;;;;;;;;;;;;;;;12.98;100.00;101579.34;5052225;28;20007;-71
2023/05/07 04:58:58;;;;;;;;;;;;;;;12.95;100.00;101590.38;5050173;28;19928;-72
2023/05/07 05:01:23;;;;;;;;;;;;;;;12.99;100.00;101580.22;5055961;28;20283;-72
2023/05/07 05:03:48;;;;;;;;;;;;;;;13.05;100.00;101580.59;5057458;28;20350;-72
2023/05/07 05:06:14;;;;;;;;;;;;;;;13.13;100.00;101590.78;5053458;28;19924;-72
2023/05/07 05:08:39;;;;;;;;;;;;;;;13.20;100.00;101596.59;5055066;28;19925;-72
2023/05/07 05:11:05;;;;;;;;;;;;;;;13.22;100.00;101589.25;5054926;28;19965;-72
2023/05/07 05:13:30;;;;;;;;;;;;;;;13.12;100.00;101562.09;5053978;28;19924;-72
2023/05/07 05:15:55;;;;;;;;;;;;;;;13.31;100.00;101603.84;5050532;28;19920;-72
2023/05/07 05:18:21;;;;;;;;;;;;;;;13.36;100.00;101609.75;5056284;28;19951;-72
2023/05/07 05:20:46;;;;;;;;;;;;;;;13.37;100.00;101608.78;5057684;28;19924;-72
2023/05/07 05:23:11;;;;;;;;;;;;;;;13.41;100.00;101610.25;5051686;28;19920;-73
2023/05/07 05:25:37;;;;;;;;;;;;;;;13.46;100.00;101609.94;5055731;28;19971;-72
2023/05/07 05:28:02;;;;;;;;;;;;;;;13.49;100.00;101609.69;5052976;28;20023;-72
2023/05/07 05:30:27;;;;;;;;;;;;;;;13.57;100.00;101612.63;5038249;28;19923;-71
2023/05/07 05:32:53;;;;;;;;;;;;;;;13.64;100.00;101616.56;5057007;28;19920;-72
2023/05/07 05:35:18;;;;;;;;;;;;;;;13.69;100.00;101618.06;5053130;28;19927;-72
2023/05/07 05:37:43;;;;;;;;;;;;;;;13.71;100.00;101619.63;5053548;28;19943;-72
2023/05/07 05:40:09;;;;;;;;;;;;;;;13.77;100.00;101621.84;5049759;28;19991;-72
2023/05/07 05:42:34;;;;;;;;;;;;;;;13.79;100.00;101619.03;5051537;28;19920;-72
2023/05/07 05:44:59;;;;;;;;;;;;;;;13.93;100.00;101624.19;5053915;28;19925;-72
2023/05/07 05:47:24;;;;;;;;;;;;;;;13.99;100.00;101635.50;5054756;28;19959;-72
2023/05/07 05:49:49;;;;;;;;;;;;;;;14.06;100.00;101642.97;5050669;28;20036;-72
2023/05/07 05:52:16;;;;;;;;;;;;;;;14.16;100.00;101639.56;5046305;28;19936;-72
2023/05/07 05:54:41;;;;;;;;;;;;;;;14.20;100.00;101641.00;5056475;28;19920;-72
2023/05/07 05:57:07;;;;;;;;;;;;;;;14.09;100.00;101636.47;5051348;28;19970;-73
2023/05/07 05:59:32;;;;;;;;;;;;;;;14.03;100.00;101639.69;5052040;28;19967;-73
2023/05/07 06:01:57;;;;;;;;;;;;;;;14.06;100.00;101642.97;5039658;28;19944;-73
2023/05/07 06:04:22;;;;;;;;;;;;;;;14.11;100.00;101634.50;5053855;28;20716;-72
2023/05/07 06:06:47;;;;;;;;;;;;;;;14.06;100.00;101631.31;5050076;28;20028;-72
2023/05/07 06:09:13;;;;;;;;;;;;;;;14.12;100.00;101632.66;5055412;28;19927;-73
2023/05/07 06:11:39;;;;;;;;;;;;;;;14.19;100.00;101631.16;5051648;28;19921;-73
2023/05/07 06:14:04;;;;;;;;;;;;;;;14.29;100.00;101642.13;5058036;28;20460;-73
2023/05/07 06:16:29;;;;;;;;;;;;;;;14.36;100.00;101636.09;5055847;28;20042;-73
2023/05/07 06:18:55;;;;;;;;;;;;;;;14.40;100.00;101631.28;5054966;28;19920;-73
2023/05/07 06:21:20;;;;;;;;;;;;;;;14.42;100.00;101634.72;5060550;28;19925;-72
2023/05/07 06:23:45;;;;;;;;;;;;;;;14.43;100.00;101632.88;5057032;28;20213;-72
2023/05/07 06:26:11;;;;;;;;;;;;;;;14.45;100.00;101636.28;5053853;28;20190;-72
2023/05/07 06:28:36;;;;;;;;;;;;;;;14.45;100.00;101639.00;5051072;28;19968;-72
2023/05/07 06:31:11;;;;;;;;;;;;;;;14.54;100.00;101644.53;5035710;28;20027;-72
2023/05/07 06:33:36;;;;;;;;;;;;;;;14.55;100.00;101637.28;5053580;28;20325;-73
2023/05/07 06:36:01;;;;;;;;;;;;;;;14.63;100.00;101639.34;5057597;28;19928;-72
2023/05/07 06:38:27;;;;;;;;;;;;;;;14.53;100.00;101618.50;5052741;28;19960;-72
2023/05/07 06:40:55;;;;;;;;;;;;;;;14.72;100.00;101641.31;5055640;28;20409;-73
2023/05/07 06:43:20;;;;;;;;;;;;;;;14.81;100.00;101650.50;5045180;28;19921;-72
2023/05/07 06:45:46;;;;;;;;;;;;;;;14.76;100.00;101645.50;5043864;28;19928;-73
2023/05/07 06:48:11;;;;;;;;;;;;;;;14.77;100.00;101640.94;5057748;28;19927;-73
2023/05/07 06:50:36;;;;;;;;;;;;;;;14.84;100.00;101642.13;5053419;28;19927;-73
2023/05/07 06:53:01;;;;;;;;;;;;;;;14.93;100.00;101646.78;5058650;28;20424;-73
2023/05/07 06:55:27;;;;;;;;;;;;;;;14.97;100.00;101647.38;5054242;28;19987;-73
2023/05/07 06:57:52;;;;;;;;;;;;;;;15.05;100.00;101652.13;5034654;28;19920;-73
2023/05/07 07:00:17;;;;;;;;;;;;;;;14.98;100.00;101657.22;5054534;28;20293;-73
2023/05/07 07:02:43;;;;;;;;;;;;;;;15.07;100.00;101659.16;5058461;28;20366;-73
2023/05/07 07:05:08;;;;;;;;;;;;;;;14.96;100.00;101662.72;5053421;28;20328;-73
2023/05/07 07:07:33;;;;;;;;;;;;;;;14.98;100.00;101657.22;5055091;28;19920;-72
2023/05/07 07:09:59;;;;;;;;;;;;;;;15.03;100.00;101654.09;5055387;28;20641;-73
2023/05/07 07:12:25;;;;;;;;;;;;;;;15.02;100.00;101658.69;5054141;28;20320;-73
2023/05/07 07:14:51;;;;;;;;;;;;;;;15.02;100.00;101657.81;5052703;28;19920;-72
2023/05/07 07:17:16;;;;;;;;;;;;;;;14.95;100.00;101657.47;5052595;28;20295;-73
2023/05/07 07:19:41;;;;;;;;;;;;;;;15.08;100.00;101662.69;5057528;28;20355;-73
2023/05/07 07:22:06;;;;;;;;;;;;;;;15.05;100.00;101663.84;5056571;28;20731;-73
2023/05/07 07:24:31;;;;;;;;;;;;;;;15.04;100.00;101656.69;5057672;28;20354;-73
2023/05/07 07:26:57;;;;;;;;;;;;;;;15.08;100.00;101657.28;5037256;28;19927;-72
2023/05/07 07:29:22;;;;;;;;;;;;;;;15.01;100.00;101654.25;5053005;28;19931;-73
2023/05/07 07:31:48;;;;;;;;;;;;;;;15.05;100.00;101661.13;5054491;28;19924;-73
2023/05/07 07:34:13;;;;;;;;;;;;;;;15.00;100.00;101656.09;5058960;28;19959;-73
2023/05/07 07:36:38;;;;;;;;;;;;;;;15.09;100.00;101659.00;5053042;28;19947;-73
2023/05/07 07:39:04;;;;;;;;;;;;;;;15.18;100.00;101665.47;5041480;28;19978;-74
2023/05/07 07:41:29;;;;;;;;;;;;;;;15.09;100.00;101662.59;5056579;28;20077;-74
2023/05/07 07:43:54;;;;;;;;;;;;;;;15.20;100.00;101667.09;5072103;28;19920;-73
2023/05/07 07:46:19;;;;;;;;;;;;;;;15.32;100.00;101670.59;5058819;28;19931;-73
2023/05/07 07:48:45;;;;;;;;;;;;;;;15.30;100.00;101675.28;5057722;28;20049;-73
2023/05/07 07:51:10;;;;;;;;;;;;;;;15.44;100.00;101671.41;5058977;28;19928;-74
2023/05/07 07:53:35;;;;;;;;;;;;;;;15.64;100.00;101671.53;5063779;28;19921;-72
2023/05/07 07:56:00;;;;;;;;;;;;;;;15.67;100.00;101666.69;5040805;28;19958;-72
2023/05/07 07:58:26;;;;;;;;;;;;;;;15.54;100.00;101671.47;5059690;28;20722;-74
2023/05/07 08:00:51;;;;;;;;;;;;;;;15.75;100.00;101672.31;5041143;28;20279;-74
2023/05/07 08:03:16;;;;;;;;;;;;;;;15.96;100.00;101676.03;5056461;28;20437;-73
2023/05/07 08:05:41;;;;;;;;;;;;;;;15.95;100.00;101672.44;5039007;28;20338;-74
2023/05/07 08:08:07;;;;;;;;;;;;;;;15.89;100.00;101670.28;5052692;28;19935;-74
2023/05/07 08:10:34;;;;;;;;;;;;;;;16.09;100.00;101670.38;5055105;28;19927;-75
2023/05/07 08:12:59;;;;;;;;;;;;;;;16.12;100.00;101668.25;5059087;28;20338;-73
2023/05/07 08:15:25;;;;;;;;;;;;;;;16.40;100.00;101668.50;5054937;28;19921;-75
2023/05/07 08:17:50;;;;;;;;;;;;;;;16.60;100.00;101674.84;5053571;28;20453;-74
2023/05/07 08:20:15;;;;;;;;;;;;;;;16.73;100.00;101671.00;5051400;28;20499;-74
2023/05/07 08:22:40;;;;;;;;;;;;;;;16.96;100.00;101678.91;5051935;28;20540;-73
2023/05/07 08:25:05;;;;;;;;;;;;;;;17.08;100.00;101666.94;5041253;28;19931;-73
2023/05/07 08:27:31;;;;;;;;;;;;;;;17.46;100.00;101667.94;5041046;28;20012;-72
2023/05/07 08:29:56;;;;;;;;;;;;;;;17.85;100.00;101664.28;5059037;28;20393;-73
2023/05/07 08:32:21;;;;;;;;;;;;;;;17.81;100.00;101658.28;5054061;28;20352;-74
2023/05/07 08:34:47;;;;;;;;;;;;;;;17.58;100.00;101660.50;5052658;28;20294;-74
2023/05/07 08:37:12;;;;;;;;;;;;;;;17.55;100.00;101663.50;5057643;28;20293;-74
2023/05/07 08:39:38;;;;;;;;;;;;;;;17.71;100.00;101664.75;5039389;28;19928;-74
2023/05/07 08:42:04;;;;;;;;;;;;;;;17.47;100.00;101660.63;5052691;28;19924;-75
2023/05/07 08:44:29;;;;;;;;;;;;;;;17.63;100.00;101663.59;5057173;28;20678;-74
2023/05/07 08:46:56;;;;;;;;;;;;;;;17.70;100.00;101658.47;5040262;28;19931;-74
2023/05/07 08:49:21;;;;;;;;;;;;;;;18.01;100.00;101668.25;5042140;28;20320;-76
2023/05/07 08:51:46;;;;;;;;;;;;;;;17.90;100.00;101661.97;5055066;28;20362;-75
2023/05/07 08:54:12;;;;;;;;;;;;;;;17.90;100.00;101661.13;5039606;28;19960;-75
2023/05/07 08:56:39;;;;;;;;;;;;;;;18.30;100.00;101657.25;5058755;28;20478;-74
2023/05/07 08:59:04;;;;;;;;;;;;;;;18.60;100.00;101674.28;5053311;28;19977;-74
2023/05/07 09:01:30;;;;;;;;;;;;;;;18.46;100.00;101661.19;5055190;28;19924;-76
2023/05/07 09:03:55;;;;;;;;;;;;;;;18.51;100.00;101664.31;5054369;28;19931;-74
2023/05/07 09:06:20;;;;;;;;;;;;;;;19.01;100.00;101674.75;5051487;28;19944;-75
2023/05/07 09:08:50;;;;;;;;;;;;;;;19.00;100.00;101670.31;5037178;28;20162;-74
2023/05/07 09:11:15;;;;;;;;;;;;;;;19.32;100.00;101668.91;5052387;28;19921;-74
2023/05/07 09:13:40;;;;;;;;;;;;;;;19.59;100.00;101671.66;5052610;28;20346;-74
2023/05/07 09:16:12;;;;;;;;;;;;;;;19.62;100.00;101663.19;5053744;28;20287;-74
2023/05/07 09:18:43;;;;;;;;;;;;;;;19.78;100.00;101660.56;5049132;28;20762;-74
2023/05/07 09:21:14;;;;;;;;;;;;;;;19.17;100.00;101676.78;5049185;28;20291;-76
2023/05/07 09:23:40;;;;;;;;;;;;;;;19.33;100.00;101665.16;5041505;28;20331;-76
2023/05/07 09:26:08;;;;;;;;;;;;;;;19.36;100.00;101661.28;5038288;28;19942;-75
2023/05/07 09:28:33;;;;;;;;;;;;;;;19.51;100.00;101663.41;5039304;28;19925;-75
2023/05/07 09:30:58;;;;;;;;;;;;;;;19.56;100.00;101663.81;5051244;28;19925;-76
2023/05/07 09:33:26;;;;;;;;;;;;;;;19.88;100.00;101663.19;5050867;28;20363;-74
2023/05/07 09:35:51;;;;;;;;;;;;;;;20.03;100.00;101665.34;5052259;28;19965;-75
2023/05/07 09:38:17;;;;;;;;;;;;;;;20.34;100.00;101664.81;5052976;28;19920;-74
2023/05/07 09:40:42;;;;;;;;;;;;;;;20.60;100.00;101664.72;5051678;28;19924;-74
2023/05/07 09:43:08;;;;;;;;;;;;;;;20.55;100.00;101655.31;5055608;28;19921;-76
2023/05/07 09:45:33;;;;;;;;;;;;;;;20.64;100.00;101657.91;5039959;28;19965;-74
2023/05/07 09:47:59;;;;;;;;;;;;;;;20.42;100.00;101659.34;5050699;28;19920;-74
2023/05/07 09:50:28;;;;;;;;;;;;;;;20.68;100.00;101662.00;5051066;28;19964;-74
2023/05/07 09:52:56;;;;;;;;;;;;;;;20.60;100.00;101656.53;5047102;28;19921;-75
2023/05/07 09:55:22;;;;;;;;;;;;;;;20.53;100.00;101659.06;5055847;28;20586;-76
2023/05/07 09:57:49;;;;;;;;;;;;;;;20.50;100.00;101656.66;5055464;28;20018;-74
2023/05/07 10:00:15;;;;;;;;;;;;;;;20.74;100.00;101665.09;5033045;28;19940;-75
2023/05/07 10:02:46;;;;;;;;;;;;;;;20.98;100.00;101669.78;5052617;28;20713;-73
2023/05/07 10:05:11;;;;;;;;;;;;;;;20.71;100.00;101663.53;5037113;28;19924;-74
2023/05/07 10:07:37;;;;;;;;;;;;;;;20.75;100.00;101662.19;5054453;28;19927;-74
2023/05/07 10:10:02;;;;;;;;;;;;;;;20.65;100.00;101669.69;5051793;28;19924;-77
2023/05/07 10:12:27;;;;;;;;;;;;;;;20.40;100.00;101669.56;5054967;28;19997;-75
2023/05/07 10:14:52;;;;;;;;;;;;;;;20.60;100.00;101663.88;5052831;28;19928;-74
2023/05/07 10:17:18;;;;;;;;;;;;;;;20.42;100.00;101664.81;5054614;28;20365;-77
2023/05/07 10:19:44;;;;;;;;;;;;;;;20.65;100.00;101661.50;5050518;28;20027;-74
2023/05/07 10:22:09;;;;;;;;;;;;;;;20.66;100.00;101655.00;5054468;28;20390;-74
2023/05/07 10:24:36;;;;;;;;;;;;;;;20.70;100.00;101663.72;5050951;28;19920;-75
2023/05/07 10:27:01;;;;;;;;;;;;;;;20.58;100.00;101665.91;5050798;28;19927;-75
2023/05/07 10:29:27;;;;;;;;;;;;;;;20.69;100.00;101660.13;5031888;28;19920;-74
2023/05/07 10:31:58;;;;;;;;;;;;;;;20.59;100.00;101660.28;5052730;28;20315;-74
2023/05/07 10:34:24;;;;;;;;;;;;;;;20.62;100.00;101653.66;5055787;28;19920;-74
2023/05/07 10:36:50;;;;;;;;;;;;;;;21.06;100.00;101661.59;5049579;28;19959;-74
2023/05/07 10:39:15;;;;;;;;;;;;;;;21.33;100.00;101664.16;5048605;28;20011;-74
2023/05/07 10:41:40;;;;;;;;;;;;;;;21.35;100.00;101667.56;5034005;28;20254;-74
2023/05/07 10:44:05;;;;;;;;;;;;;;;21.30;100.00;101661.78;5047675;28;19963;-74
2023/05/07 10:46:34;;;;;;;;;;;;;;;21.29;100.00;101660.94;5052583;28;20286;-75
2023/05/07 10:49:00;;;;;;;;;;;;;;;21.38;100.00;101659.03;5047918;28;19952;-74
2023/05/07 10:51:25;;;;;;;;;;;;;;;21.17;100.00;101665.88;5055115;28;20351;-74
2023/05/07 10:54:23;;;;;;;;;;;;;;;21.15;100.00;101661.63;5050536;28;19931;-74
2023/05/07 10:56:50;;;;;;;;;;;;;;;21.03;100.00;101647.44;5052159;28;19927;-74
2023/05/07 10:59:26;;;;;;;;;;;;;;;20.86;100.00;101663.78;5050823;28;19928;-74
2023/05/07 11:02:03;;;;;;;;;;;;;;;21.00;100.00;101661.44;5053020;28;19943;-74
2023/05/07 11:04:31;;;;;;;;;;;;;;;20.83;100.00;101662.25;5049893;28;19956;-74
2023/05/07 11:07:05;;;;;;;;;;;;;;;20.82;100.00;101657.81;5048826;28;19924;-75
2023/05/07 11:09:51;;;;;;;;;;;;;;;20.77;100.00;101654.72;5055764;28;20005;-74
2023/05/07 11:12:16;;;;;;;;;;;;;;;20.83;100.00;101656.78;5049772;28;19921;-75
2023/05/07 11:14:42;;;;;;;;;;;;;;;20.78;100.00;101653.72;5053786;28;19956;-73
2023/05/07 11:17:07;;;;;;;;;;;;;;;20.79;100.00;101649.13;5048154;28;19921;-73
2023/05/07 11:19:51;;;;;;;;;;;;;;;20.88;100.00;101647.25;5048868;28;19924;-73
2023/05/07 11:22:31;;;;;;;;;;;;;;;20.93;100.00;101648.44;5048033;28;19920;-74
2023/05/07 11:25:00;;;;;;;;;;;;;;;20.87;100.00;101649.13;5053281;28;19921;-74
2023/05/07 11:27:25;;;;;;;;;;;;;;;21.06;100.00;101649.81;5049648;28;20291;-74
2023/05/07 11:29:50;;;;;;;;;;;;;;;21.23;100.00;101653.41;5050820;28;19920;-75
2023/05/07 11:32:21;;;;;;;;;;;;;;;21.41;100.00;101651.38;5055370;28;20006;-73
2023/05/07 11:34:46;;;;;;;;;;;;;;;21.61;100.00;101656.50;5054419;28;19917;-74
2023/05/07 11:37:12;;;;;;;;;;;;;;;21.43;100.00;101660.25;5049257;28;19932;-74
2023/05/07 11:39:37;;;;;;;;;;;;;;;21.69;100.00;101655.63;5036725;28;19976;-73
2023/05/07 11:42:03;;;;;;;;;;;;;;;21.97;100.00;101649.75;5054277;28;19971;-74
2023/05/07 11:44:43;;;;;;;;;;;;;;;21.99;100.00;101650.44;5055396;28;19916;-73
2023/05/07 11:47:09;;;;;;;;;;;;;;;22.20;100.00;101657.19;5047929;28;19920;-73
2023/05/07 11:49:34;;;;;;;;;;;;;;;22.31;100.00;101657.66;5046855;28;19948;-73
2023/05/07 11:51:59;;;;;;;;;;;;;;;22.18;100.00;101658.22;5043935;28;19925;-74
2023/05/07 11:54:26;;;;;;;;;;;;;;;22.42;90.69;101656.41;5054966;28;19969;-74
2023/05/07 11:56:51;;;;;;;;;;;;;;;22.76;96.61;101657.13;5050603;28;19921;-73
2023/05/07 11:59:18;;;;;;;;;;;;;;;22.99;91.79;101659.88;5052410;28;19974;-74
2023/05/07 12:01:45;;;;;;;;;;;;;;;22.99;89.82;101659.88;5047829;28;19921;-73
2023/05/07 12:04:10;;;;;;;;;;;;;;;23.05;89.55;101664.63;5052636;28;19920;-73
2023/05/07 12:06:36;;;;;;;;;;;;;;;22.76;92.41;101663.44;5048417;28;20415;-74
2023/05/07 12:09:01;;;;;;;;;;;;;;;22.57;88.75;101663.91;5047744;28;20346;-75
2023/05/07 12:11:26;;;;;;;;;;;;;;;22.68;88.69;101660.75;5048376;28;19924;-74
2023/05/07 12:13:51;;;;;;;;;;;;;;;22.49;92.00;101653.88;5052878;28;19920;-75
2023/05/07 12:16:17;;;;;;;;;;;;;;;22.06;84.42;101658.78;5052407;28;20051;-74
2023/05/07 12:18:42;;;;;;;;;;;;;;;22.22;88.19;101656.00;5050357;28;19978;-73
2023/05/07 12:21:07;;;;;;;;;;;;;;;22.33;89.44;101661.06;5052108;28;19927;-72